sensor_id;sensor_type;location;lat;lon;timestamp;pressure;altitude;pressure_sealevel;temperature
67599;BMP280;62026;39.230;9.122;2023-07-31T00:00:37;100864.84;;;28.49
67599;BMP280;62026;39.230;9.122;2023-07-31T00:03:03;100860.88;;;28.47
67599;BMP280;62026;39.230;9.122;2023-07-31T00:05:29;100859.97;;;28.43
67599;BMP280;62026;39.230;9.122;2023-07-31T00:07:55;100849.09;;;28.43
67599;BMP280;62026;39.230;9.122;2023-07-31T00:10:21;100854.38;;;28.39
67599;BMP280;62026;39.230;9.122;2023-07-31T00:12:47;100852.00;;;28.38
67599;BMP280;62026;39.230;9.122;2023-07-31T00:15:15;100846.59;;;28.38
67599;BMP280;62026;39.230;9.122;2023-07-31T00:17:41;100854.25;;;28.36
67599;BMP280;62026;39.230;9.122;2023-07-31T00:20:07;100848.81;;;28.36
67599;BMP280;62026;39.230;9.122;2023-07-31T00:22:33;100855.84;;;28.37
67599;BMP280;62026;39.230;9.122;2023-07-31T00:24:59;100860.81;;;28.35
67599;BMP280;62026;39.230;9.122;2023-07-31T00:27:25;100855.69;;;28.33
67599;BMP280;62026;39.230;9.122;2023-07-31T00:29:51;100851.06;;;28.34
67599;BMP280;62026;39.230;9.122;2023-07-31T00:32:17;100855.56;;;28.30
67599;BMP280;62026;39.230;9.122;2023-07-31T00:34:43;100860.84;;;28.26
67599;BMP280;62026;39.230;9.122;2023-07-31T00:37:09;100858.81;;;28.23
67599;BMP280;62026;39.230;9.122;2023-07-31T00:39:36;100851.03;;;28.22
67599;BMP280;62026;39.230;9.122;2023-07-31T00:42:02;100852.16;;;28.21
67599;BMP280;62026;39.230;9.122;2023-07-31T00:44:28;100854.19;;;28.24
67599;BMP280;62026;39.230;9.122;2023-07-31T00:46:56;100848.31;;;28.22
67599;BMP280;62026;39.230;9.122;2023-07-31T00:49:24;100851.22;;;28.17
67599;BMP280;62026;39.230;9.122;2023-07-31T00:51:50;100849.63;;;28.16
67599;BMP280;62026;39.230;9.122;2023-07-31T00:54:17;100840.25;;;28.13
67599;BMP280;62026;39.230;9.122;2023-07-31T00:56:46;100848.69;;;28.12
67599;BMP280;62026;39.230;9.122;2023-07-31T00:59:14;100843.25;;;28.12
67599;BMP280;62026;39.230;9.122;2023-07-31T01:01:40;100843.25;;;28.12
67599;BMP280;62026;39.230;9.122;2023-07-31T01:04:07;100842.81;;;28.09
67599;BMP280;62026;39.230;9.122;2023-07-31T01:12:16;100840.59;;;28.03
67599;BMP280;62026;39.230;9.122;2023-07-31T01:15:05;100843.63;;;28.01
67599;BMP280;62026;39.230;9.122;2023-07-31T01:17:32;100837.44;;;28.01
67599;BMP280;62026;39.230;9.122;2023-07-31T01:20:05;100843.31;;;28.03
67599;BMP280;62026;39.230;9.122;2023-07-31T01:26:23;100847.94;;;28.02
67599;BMP280;62026;39.230;9.122;2023-07-31T01:29:06;100843.63;;;28.01
67599;BMP280;62026;39.230;9.122;2023-07-31T01:31:33;100842.41;;;27.99
67599;BMP280;62026;39.230;9.122;2023-07-31T01:34:01;100841.59;;;27.98
67599;BMP280;62026;39.230;9.122;2023-07-31T01:36:30;100838.88;;;27.98
67599;BMP280;62026;39.230;9.122;2023-07-31T01:39:00;100835.69;;;27.96
67599;BMP280;62026;39.230;9.122;2023-07-31T01:41:27;100836.81;;;27.95
67599;BMP280;62026;39.230;9.122;2023-07-31T01:43:53;100832.06;;;27.92
67599;BMP280;62026;39.230;9.122;2023-07-31T01:46:19;100828.56;;;27.92
67599;BMP280;62026;39.230;9.122;2023-07-31T01:48:45;100834.31;;;27.90
67599;BMP280;62026;39.230;9.122;2023-07-31T01:51:11;100831.59;;;27.90
67599;BMP280;62026;39.230;9.122;2023-07-31T01:53:37;100833.84;;;27.88
67599;BMP280;62026;39.230;9.122;2023-07-31T01:56:03;100838.47;;;27.88
67599;BMP280;62026;39.230;9.122;2023-07-31T01:58:30;100833.72;;;27.85
67599;BMP280;62026;39.230;9.122;2023-07-31T02:00:56;100837.56;;;27.84
67599;BMP280;62026;39.230;9.122;2023-07-31T02:03:22;100835.19;;;27.82
67599;BMP280;62026;39.230;9.122;2023-07-31T02:05:50;100834.34;;;27.82
67599;BMP280;62026;39.230;9.122;2023-07-31T02:08:16;100835.47;;;27.81
67599;BMP280;62026;39.230;9.122;2023-07-31T02:10:42;100838.53;;;27.79
67599;BMP280;62026;39.230;9.122;2023-07-31T02:13:08;100843.16;;;27.79
67599;BMP280;62026;39.230;9.122;2023-07-31T02:15:35;100835.31;;;27.86
67599;BMP280;62026;39.230;9.122;2023-07-31T02:18:01;100831.44;;;27.87
67599;BMP280;62026;39.230;9.122;2023-07-31T02:20:27;100844.06;;;27.91
67599;BMP280;62026;39.230;9.122;2023-07-31T02:22:53;100837.69;;;27.87
67599;BMP280;62026;39.230;9.122;2023-07-31T02:25:19;100832.91;;;27.84
67599;BMP280;62026;39.230;9.122;2023-07-31T02:27:45;100836.06;;;27.86
67599;BMP280;62026;39.230;9.122;2023-07-31T02:30:11;100838.47;;;27.88
67599;BMP280;62026;39.230;9.122;2023-07-31T02:32:37;100840.75;;;27.86
67599;BMP280;62026;39.230;9.122;2023-07-31T02:35:04;100837.22;;;27.85
67599;BMP280;62026;39.230;9.122;2023-07-31T02:37:30;100850.00;;;27.85
67599;BMP280;62026;39.230;9.122;2023-07-31T02:39:55;100843.47;;;27.86
67599;BMP280;62026;39.230;9.122;2023-07-31T02:42:21;100845.81;;;27.87
67599;BMP280;62026;39.230;9.122;2023-07-31T02:44:48;100850.81;;;27.85
67599;BMP280;62026;39.230;9.122;2023-07-31T02:47:14;100836.75;;;27.83
67599;BMP280;62026;39.230;9.122;2023-07-31T02:49:40;100848.41;;;27.84
67599;BMP280;62026;39.230;9.122;2023-07-31T02:52:06;100843.78;;;27.84
67599;BMP280;62026;39.230;9.122;2023-07-31T02:54:32;100835.63;;;27.84
67599;BMP280;62026;39.230;9.122;2023-07-31T02:56:58;100833.56;;;27.81
67599;BMP280;62026;39.230;9.122;2023-07-31T02:59:24;100831.31;;;27.83
67599;BMP280;62026;39.230;9.122;2023-07-31T03:01:51;100830.84;;;27.81
67599;BMP280;62026;39.230;9.122;2023-07-31T03:04:17;100839.78;;;27.82
67599;BMP280;62026;39.230;9.122;2023-07-31T03:06:42;100837.06;;;27.82
67599;BMP280;62026;39.230;9.122;2023-07-31T03:09:08;100837.91;;;27.82
67599;BMP280;62026;39.230;9.122;2023-07-31T03:11:34;100830.03;;;27.81
67599;BMP280;62026;39.230;9.122;2023-07-31T03:14:01;100830.41;;;27.79
67599;BMP280;62026;39.230;9.122;2023-07-31T03:16:27;100827.22;;;27.77
67599;BMP280;62026;39.230;9.122;2023-07-31T03:18:54;100835.03;;;27.79
67599;BMP280;62026;39.230;9.122;2023-07-31T03:21:20;100836.50;;;27.76
67599;BMP280;62026;39.230;9.122;2023-07-31T03:23:46;100843.03;;;27.75
67599;BMP280;62026;39.230;9.122;2023-07-31T03:26:12;100845.75;;;27.75
67599;BMP280;62026;39.230;9.122;2023-07-31T03:28:38;100844.97;;;27.75
67599;BMP280;62026;39.230;9.122;2023-07-31T03:31:04;100846.03;;;27.74
67599;BMP280;62026;39.230;9.122;2023-07-31T03:33:30;100846.72;;;27.71
67599;BMP280;62026;39.230;9.122;2023-07-31T03:35:56;100843.22;;;27.70
67599;BMP280;62026;39.230;9.122;2023-07-31T03:38:22;100847.06;;;27.69
67599;BMP280;62026;39.230;9.122;2023-07-31T03:40:48;100847.06;;;27.69
67599;BMP280;62026;39.230;9.122;2023-07-31T03:43:15;100847.06;;;27.69
67599;BMP280;62026;39.230;9.122;2023-07-31T03:45:42;100849.31;;;27.67
67599;BMP280;62026;39.230;9.122;2023-07-31T03:48:08;100853.13;;;27.66
67599;BMP280;62026;39.230;9.122;2023-07-31T03:50:34;100855.03;;;27.65
67599;BMP280;62026;39.230;9.122;2023-07-31T03:53:00;100853.13;;;27.66
67599;BMP280;62026;39.230;9.122;2023-07-31T03:55:26;100854.25;;;27.65
67599;BMP280;62026;39.230;9.122;2023-07-31T03:57:52;100844.53;;;27.64
67599;BMP280;62026;39.230;9.122;2023-07-31T04:00:18;100841.34;;;27.62
67599;BMP280;62026;39.230;9.122;2023-07-31T04:02:44;100838.63;;;27.62
67599;BMP280;62026;39.230;9.122;2023-07-31T04:05:10;100842.13;;;27.62
67599;BMP280;62026;39.230;9.122;2023-07-31T04:07:37;100847.56;;;27.62
67599;BMP280;62026;39.230;9.122;2023-07-31T04:10:04;100844.41;;;27.60
67599;BMP280;62026;39.230;9.122;2023-07-31T04:12:30;100846.31;;;27.60
67599;BMP280;62026;39.230;9.122;2023-07-31T04:14:56;100847.75;;;27.57
67599;BMP280;62026;39.230;9.122;2023-07-31T04:17:21;100850.78;;;27.56
67599;BMP280;62026;39.230;9.122;2023-07-31T04:19:47;100839.47;;;27.54
67599;BMP280;62026;39.230;9.122;2023-07-31T04:22:13;100848.75;;;27.53
67599;BMP280;62026;39.230;9.122;2023-07-31T04:24:40;100850.16;;;27.50
67599;BMP280;62026;39.230;9.122;2023-07-31T04:27:06;100849.84;;;27.52
67599;BMP280;62026;39.230;9.122;2023-07-31T04:29:32;100855.59;;;27.50
67599;BMP280;62026;39.230;9.122;2023-07-31T04:31:58;100852.09;;;27.50
67599;BMP280;62026;39.230;9.122;2023-07-31T04:34:24;100850.84;;;27.47
67599;BMP280;62026;39.230;9.122;2023-07-31T04:36:50;100855.91;;;27.49
67599;BMP280;62026;39.230;9.122;2023-07-31T04:39:16;100862.50;;;27.48
67599;BMP280;62026;39.230;9.122;2023-07-31T04:41:42;100852.09;;;27.50
67599;BMP280;62026;39.230;9.122;2023-07-31T04:44:08;100860.22;;;27.50
67599;BMP280;62026;39.230;9.122;2023-07-31T04:46:34;100869.47;;;27.49
67599;BMP280;62026;39.230;9.122;2023-07-31T04:49:01;100867.91;;;27.48
67599;BMP280;62026;39.230;9.122;2023-07-31T04:51:26;100859.28;;;27.46
67599;BMP280;62026;39.230;9.122;2023-07-31T04:53:52;100870.16;;;27.46
67599;BMP280;62026;39.230;9.122;2023-07-31T04:56:18;100861.53;;;27.44
67599;BMP280;62026;39.230;9.122;2023-07-31T04:58:44;100870.16;;;27.46
67599;BMP280;62026;39.230;9.122;2023-07-31T05:01:10;100863.16;;;27.45
67599;BMP280;62026;39.230;9.122;2023-07-31T05:03:36;100871.75;;;27.47
67599;BMP280;62026;39.230;9.122;2023-07-31T05:06:02;100870.28;;;27.49
67599;BMP280;62026;39.230;9.122;2023-07-31T05:08:28;100865.00;;;27.53
67599;BMP280;62026;39.230;9.122;2023-07-31T05:10:54;100860.53;;;27.57
67599;BMP280;62026;39.230;9.122;2023-07-31T05:13:20;100859.88;;;27.60
67599;BMP280;62026;39.230;9.122;2023-07-31T05:15:46;100865.44;;;27.63
67599;BMP280;62026;39.230;9.122;2023-07-31T05:18:11;100873.09;;;27.70
67599;BMP280;62026;39.230;9.122;2023-07-31T05:20:37;100865.84;;;27.74
67599;BMP280;62026;39.230;9.122;2023-07-31T05:23:03;100867.91;;;27.77
67599;BMP280;62026;39.230;9.122;2023-07-31T05:25:29;100870.13;;;27.84
67599;BMP280;62026;39.230;9.122;2023-07-31T05:27:55;100872.97;;;27.87
67599;BMP280;62026;39.230;9.122;2023-07-31T05:30:21;100880.16;;;27.92
67599;BMP280;62026;39.230;9.122;2023-07-31T05:32:47;100875.31;;;27.97
67599;BMP280;62026;39.230;9.122;2023-07-31T05:35:13;100871.59;;;28.02
67599;BMP280;62026;39.230;9.122;2023-07-31T05:37:39;100883.25;;;28.02
67599;BMP280;62026;39.230;9.122;2023-07-31T05:40:06;100885.13;;;28.11
67599;BMP280;62026;39.230;9.122;2023-07-31T05:42:32;100885.13;;;28.11
67599;BMP280;62026;39.230;9.122;2023-07-31T05:44:58;100884.47;;;28.14
67599;BMP280;62026;39.230;9.122;2023-07-31T05:47:24;100884.19;;;28.06
67599;BMP280;62026;39.230;9.122;2023-07-31T05:49:50;100876.63;;;28.12
67599;BMP280;62026;39.230;9.122;2023-07-31T05:52:19;100880.63;;;28.15
67599;BMP280;62026;39.230;9.122;2023-07-31T05:54:45;100880.63;;;28.15
67599;BMP280;62026;39.230;9.122;2023-07-31T05:57:14;100875.19;;;28.15
67599;BMP280;62026;39.230;9.122;2023-07-31T05:59:40;100878.31;;;28.25
67599;BMP280;62026;39.230;9.122;2023-07-31T06:02:06;100884.06;;;28.24
67599;BMP280;62026;39.230;9.122;2023-07-31T06:04:32;100885.00;;;28.28
67599;BMP280;62026;39.230;9.122;2023-07-31T06:06:58;100887.97;;;28.35
67599;BMP280;62026;39.230;9.122;2023-07-31T06:09:24;100881.41;;;28.36
67599;BMP280;62026;39.230;9.122;2023-07-31T06:11:50;100885.38;;;28.38
67599;BMP280;62026;39.230;9.122;2023-07-31T06:14:16;100883.28;;;28.44
67599;BMP280;62026;39.230;9.122;2023-07-31T06:16:42;100885.78;;;28.49
67599;BMP280;62026;39.230;9.122;2023-07-31T06:19:10;100879.47;;;28.57
67599;BMP280;62026;39.230;9.122;2023-07-31T06:21:36;100885.13;;;28.52
67599;BMP280;62026;39.230;9.122;2023-07-31T06:24:05;100883.59;;;28.42
67599;BMP280;62026;39.230;9.122;2023-07-31T06:26:31;100890.28;;;28.45
67599;BMP280;62026;39.230;9.122;2023-07-31T06:28:57;100892.00;;;28.49
67599;BMP280;62026;39.230;9.122;2023-07-31T06:31:23;100896.00;;;28.52
67599;BMP280;62026;39.230;9.122;2023-07-31T06:33:51;100891.47;;;28.56
67599;BMP280;62026;39.230;9.122;2023-07-31T06:36:18;100890.84;;;28.59
67599;BMP280;62026;39.230;9.122;2023-07-31T06:38:44;100889.47;;;28.65
67599;BMP280;62026;39.230;9.122;2023-07-31T06:41:10;100896.94;;;28.68
67599;BMP280;62026;39.230;9.122;2023-07-31T06:43:37;100901.06;;;28.86
67599;BMP280;62026;39.230;9.122;2023-07-31T06:46:07;100893.69;;;29.20
67599;BMP280;62026;39.230;9.122;2023-07-31T06:48:33;100894.06;;;29.30
67599;BMP280;62026;39.230;9.122;2023-07-31T06:51:01;100889.88;;;29.45
67599;BMP280;62026;39.230;9.122;2023-07-31T06:53:27;100889.84;;;29.33
67599;BMP280;62026;39.230;9.122;2023-07-31T06:55:53;100894.91;;;29.10
67599;BMP280;62026;39.230;9.122;2023-07-31T06:58:20;100902.41;;;29.13
67599;BMP280;62026;39.230;9.122;2023-07-31T07:00:46;100906.19;;;29.21
67599;BMP280;62026;39.230;9.122;2023-07-31T07:03:12;100912.16;;;29.26
67599;BMP280;62026;39.230;9.122;2023-07-31T07:05:40;100910.47;;;29.34
67599;BMP280;62026;39.230;9.122;2023-07-31T07:08:06;100903.03;;;29.43
67599;BMP280;62026;39.230;9.122;2023-07-31T07:10:32;100908.91;;;29.57
67599;BMP280;62026;39.230;9.122;2023-07-31T07:12:58;100912.88;;;29.84
67599;BMP280;62026;39.230;9.122;2023-07-31T07:15:24;100910.69;;;30.02
67599;BMP280;62026;39.230;9.122;2023-07-31T07:17:50;100915.00;;;30.03
67599;BMP280;62026;39.230;9.122;2023-07-31T07:20:16;100910.84;;;30.21
67599;BMP280;62026;39.230;9.122;2023-07-31T07:22:42;100914.94;;;30.27
67599;BMP280;62026;39.230;9.122;2023-07-31T07:25:11;100902.63;;;30.33
67599;BMP280;62026;39.230;9.122;2023-07-31T07:27:37;100911.22;;;30.19
67599;BMP280;62026;39.230;9.122;2023-07-31T07:30:03;100912.94;;;30.12
67599;BMP280;62026;39.230;9.122;2023-07-31T07:32:29;100917.03;;;30.06
67599;BMP280;62026;39.230;9.122;2023-07-31T07:34:55;100916.72;;;30.35
67599;BMP280;62026;39.230;9.122;2023-07-31T07:37:22;100911.91;;;30.44
67599;BMP280;62026;39.230;9.122;2023-07-31T07:39:48;100911.56;;;30.73
67599;BMP280;62026;39.230;9.122;2023-07-31T07:42:14;100909.03;;;30.81
67599;BMP280;62026;39.230;9.122;2023-07-31T07:44:40;100903.50;;;30.93
67599;BMP280;62026;39.230;9.122;2023-07-31T07:47:06;100905.97;;;30.98
67599;BMP280;62026;39.230;9.122;2023-07-31T07:49:35;100900.44;;;31.10
67599;BMP280;62026;39.230;9.122;2023-07-31T07:52:03;100898.66;;;31.02
67599;BMP280;62026;39.230;9.122;2023-07-31T07:54:30;100893.09;;;30.83
67599;BMP280;62026;39.230;9.122;2023-07-31T07:56:55;100904.22;;;31.21
67599;BMP280;62026;39.230;9.122;2023-07-31T07:59:21;100898.41;;;31.07
67599;BMP280;62026;39.230;9.122;2023-07-31T08:01:47;100897.88;;;31.33
67599;BMP280;62026;39.230;9.122;2023-07-31T08:04:13;100882.31;;;31.52
67599;BMP280;62026;39.230;9.122;2023-07-31T08:06:39;100891.66;;;31.51
67599;BMP280;62026;39.230;9.122;2023-07-31T08:09:05;100898.97;;;31.47
67599;BMP280;62026;39.230;9.122;2023-07-31T08:11:33;100895.69;;;31.57
67599;BMP280;62026;39.230;9.122;2023-07-31T08:13:59;100901.00;;;31.50
67599;BMP280;62026;39.230;9.122;2023-07-31T08:16:25;100906.56;;;31.73
67599;BMP280;62026;39.230;9.122;2023-07-31T08:18:50;100902.09;;;32.00
67599;BMP280;62026;39.230;9.122;2023-07-31T08:21:16;100900.44;;;31.95
67599;BMP280;62026;39.230;9.122;2023-07-31T08:23:42;100907.84;;;32.14
67599;BMP280;62026;39.230;9.122;2023-07-31T08:26:17;100903.81;;;32.27
67599;BMP280;62026;39.230;9.122;2023-07-31T08:28:43;100904.22;;;32.48
67599;BMP280;62026;39.230;9.122;2023-07-31T08:31:09;100911.44;;;32.37
67599;BMP280;62026;39.230;9.122;2023-07-31T08:33:37;100909.53;;;32.19
67599;BMP280;62026;39.230;9.122;2023-07-31T08:36:03;100915.72;;;32.38
67599;BMP280;62026;39.230;9.122;2023-07-31T08:38:29;100911.38;;;32.34
67599;BMP280;62026;39.230;9.122;2023-07-31T08:40:57;100911.69;;;32.51
67599;BMP280;62026;39.230;9.122;2023-07-31T08:43:26;100917.84;;;32.68
67599;BMP280;62026;39.230;9.122;2023-07-31T08:45:53;100913.78;;;32.81
67599;BMP280;62026;39.230;9.122;2023-07-31T08:48:21;100920.41;;;32.57
67599;BMP280;62026;39.230;9.122;2023-07-31T08:50:48;100920.56;;;32.45
67599;BMP280;62026;39.230;9.122;2023-07-31T08:53:14;100918.34;;;32.50
67599;BMP280;62026;39.230;9.122;2023-07-31T08:55:40;100908.66;;;32.56
67599;BMP280;62026;39.230;9.122;2023-07-31T08:58:07;100913.78;;;32.81
67599;BMP280;62026;39.230;9.122;2023-07-31T09:00:35;100912.59;;;32.55
67599;BMP280;62026;39.230;9.122;2023-07-31T09:03:08;100913.38;;;32.56
67599;BMP280;62026;39.230;9.122;2023-07-31T09:05:38;100913.56;;;32.89
67599;BMP280;62026;39.230;9.122;2023-07-31T09:08:09;100908.81;;;32.64
67599;BMP280;62026;39.230;9.122;2023-07-31T09:10:40;100915.25;;;32.75
67599;BMP280;62026;39.230;9.122;2023-07-31T09:13:07;100910.13;;;32.96
67599;BMP280;62026;39.230;9.122;2023-07-31T09:15:33;100905.44;;;33.19
67599;BMP280;62026;39.230;9.122;2023-07-31T09:18:02;100902.19;;;33.36
67599;BMP280;62026;39.230;9.122;2023-07-31T09:20:28;100901.13;;;33.44
67599;BMP280;62026;39.230;9.122;2023-07-31T09:22:55;100895.13;;;33.09
67599;BMP280;62026;39.230;9.122;2023-07-31T09:25:26;100890.81;;;33.08
67599;BMP280;62026;39.230;9.122;2023-07-31T09:27:59;100888.19;;;33.41
67599;BMP280;62026;39.230;9.122;2023-07-31T09:30:26;100878.63;;;33.32
67599;BMP280;62026;39.230;9.122;2023-07-31T09:33:05;100886.94;;;33.13
67599;BMP280;62026;39.230;9.122;2023-07-31T09:35:35;100879.88;;;33.08
67599;BMP280;62026;39.230;9.122;2023-07-31T09:38:07;100878.28;;;33.33
67599;BMP280;62026;39.230;9.122;2023-07-31T09:40:38;100874.09;;;33.43
67599;BMP280;62026;39.230;9.122;2023-07-31T09:43:10;100872.41;;;33.61
67599;BMP280;62026;39.230;9.122;2023-07-31T09:45:42;100869.59;;;33.58
67599;BMP280;62026;39.230;9.122;2023-07-31T09:48:13;100872.78;;;33.07
67599;BMP280;62026;39.230;9.122;2023-07-31T09:50:46;100869.50;;;33.50
67599;BMP280;62026;39.230;9.122;2023-07-31T09:53:14;100874.16;;;33.76
67599;BMP280;62026;39.230;9.122;2023-07-31T09:55:41;100860.50;;;33.80
67599;BMP280;62026;39.230;9.122;2023-07-31T09:58:11;100866.88;;;33.91
67599;BMP280;62026;39.230;9.122;2023-07-31T10:00:39;100862.72;;;34.00
67599;BMP280;62026;39.230;9.122;2023-07-31T10:03:08;100856.81;;;33.65
67599;BMP280;62026;39.230;9.122;2023-07-31T10:05:36;100859.31;;;33.77
67599;BMP280;62026;39.230;9.122;2023-07-31T10:08:04;100867.66;;;33.58
67599;BMP280;62026;39.230;9.122;2023-07-31T10:10:31;100862.25;;;33.35
67599;BMP280;62026;39.230;9.122;2023-07-31T10:12:59;100869.41;;;33.43
67599;BMP280;62026;39.230;9.122;2023-07-31T10:15:27;100858.59;;;33.84
67599;BMP280;62026;39.230;9.122;2023-07-31T10:17:54;100864.28;;;33.68
67599;BMP280;62026;39.230;9.122;2023-07-31T10:20:21;100854.19;;;33.76
67599;BMP280;62026;39.230;9.122;2023-07-31T10:22:48;100862.72;;;33.71
67599;BMP280;62026;39.230;9.122;2023-07-31T10:25:15;100851.88;;;33.48
67599;BMP280;62026;39.230;9.122;2023-07-31T10:27:43;100853.41;;;33.16
67599;BMP280;62026;39.230;9.122;2023-07-31T10:30:15;100860.03;;;33.44
67599;BMP280;62026;39.230;9.122;2023-07-31T10:32:43;100846.63;;;33.36
67599;BMP280;62026;39.230;9.122;2023-07-31T10:35:10;100848.72;;;33.16
67599;BMP280;62026;39.230;9.122;2023-07-31T10:37:39;100856.94;;;33.20
67599;BMP280;62026;39.230;9.122;2023-07-31T10:40:24;100843.56;;;33.41
67599;BMP280;62026;39.230;9.122;2023-07-31T10:42:57;100849.00;;;33.11
67599;BMP280;62026;39.230;9.122;2023-07-31T10:45:38;100846.38;;;33.18
67599;BMP280;62026;39.230;9.122;2023-07-31T10:48:05;100848.28;;;32.91
67599;BMP280;62026;39.230;9.122;2023-07-31T10:50:37;100841.25;;;33.17
67599;BMP280;62026;39.230;9.122;2023-07-31T10:53:04;100836.25;;;33.22
67599;BMP280;62026;39.230;9.122;2023-07-31T10:55:40;100836.69;;;33.24
67599;BMP280;62026;39.230;9.122;2023-07-31T10:58:14;100833.88;;;33.21
67599;BMP280;62026;39.230;9.122;2023-07-31T11:00:44;100827.22;;;33.18
67599;BMP280;62026;39.230;9.122;2023-07-31T11:03:18;100827.88;;;33.12
67599;BMP280;62026;39.230;9.122;2023-07-31T11:08:41;100825.75;;;32.98
67599;BMP280;62026;39.230;9.122;2023-07-31T11:11:13;100828.69;;;32.86
67599;BMP280;62026;39.230;9.122;2023-07-31T11:13:54;100825.59;;;32.91
67599;BMP280;62026;39.230;9.122;2023-07-31T11:16:23;100813.94;;;32.94
67599;BMP280;62026;39.230;9.122;2023-07-31T11:18:51;100818.75;;;33.00
67599;BMP280;62026;39.230;9.122;2023-07-31T11:21:21;100820.16;;;33.17
67599;BMP280;62026;39.230;9.122;2023-07-31T11:23:50;100811.63;;;33.52
67599;BMP280;62026;39.230;9.122;2023-07-31T11:26:18;100811.88;;;33.73
67599;BMP280;62026;39.230;9.122;2023-07-31T11:28:47;100799.47;;;33.83
67599;BMP280;62026;39.230;9.122;2023-07-31T11:31:14;100802.63;;;33.88
67599;BMP280;62026;39.230;9.122;2023-07-31T11:33:40;100799.59;;;33.97
67599;BMP280;62026;39.230;9.122;2023-07-31T11:36:06;100808.34;;;34.10
67599;BMP280;62026;39.230;9.122;2023-07-31T11:38:34;100792.75;;;34.17
67599;BMP280;62026;39.230;9.122;2023-07-31T11:41:04;100791.13;;;34.13
67599;BMP280;62026;39.230;9.122;2023-07-31T11:43:34;100797.66;;;34.41
67599;BMP280;62026;39.230;9.122;2023-07-31T11:46:02;100781.72;;;34.10
67599;BMP280;62026;39.230;9.122;2023-07-31T11:48:33;100786.50;;;34.20
67599;BMP280;62026;39.230;9.122;2023-07-31T11:51:05;100781.81;;;34.21
67599;BMP280;62026;39.230;9.122;2023-07-31T11:53:40;100779.69;;;34.00
67599;BMP280;62026;39.230;9.122;2023-07-31T11:56:09;100767.25;;;34.13
67599;BMP280;62026;39.230;9.122;2023-07-31T11:58:38;100775.50;;;34.17
67599;BMP280;62026;39.230;9.122;2023-07-31T12:01:05;100770.75;;;34.10
67599;BMP280;62026;39.230;9.122;2023-07-31T12:03:32;100780.25;;;34.20
67599;BMP280;62026;39.230;9.122;2023-07-31T12:05:59;100780.19;;;34.16
67599;BMP280;62026;39.230;9.122;2023-07-31T12:08:26;100762.09;;;34.52
67599;BMP280;62026;39.230;9.122;2023-07-31T12:10:53;100770.28;;;34.48
67599;BMP280;62026;39.230;9.122;2023-07-31T12:13:25;100776.31;;;34.17
67599;BMP280;62026;39.230;9.122;2023-07-31T12:15:58;100750.47;;;34.18
67599;BMP280;62026;39.230;9.122;2023-07-31T12:18:28;100756.13;;;33.95
67599;BMP280;62026;39.230;9.122;2023-07-31T12:21:00;100762.81;;;33.98
67599;BMP280;62026;39.230;9.122;2023-07-31T12:23:30;100749.53;;;34.00
67599;BMP280;62026;39.230;9.122;2023-07-31T12:26:15;100762.84;;;34.01
67599;BMP280;62026;39.230;9.122;2023-07-31T12:28:50;100749.31;;;33.79
67599;BMP280;62026;39.230;9.122;2023-07-31T12:31:21;100752.53;;;33.88
67599;BMP280;62026;39.230;9.122;2023-07-31T12:33:50;100737.19;;;33.80
67599;BMP280;62026;39.230;9.122;2023-07-31T12:36:24;100740.13;;;34.01
67599;BMP280;62026;39.230;9.122;2023-07-31T12:38:52;100742.41;;;33.92
67599;BMP280;62026;39.230;9.122;2023-07-31T12:41:18;100736.47;;;33.86
67599;BMP280;62026;39.230;9.122;2023-07-31T12:43:45;100733.63;;;33.76
67599;BMP280;62026;39.230;9.122;2023-07-31T12:46:11;100734.78;;;33.75
67599;BMP280;62026;39.230;9.122;2023-07-31T12:48:39;100739.06;;;33.72
67599;BMP280;62026;39.230;9.122;2023-07-31T12:51:06;100731.22;;;33.71
67599;BMP280;62026;39.230;9.122;2023-07-31T12:53:35;100734.38;;;33.73
67599;BMP280;62026;39.230;9.122;2023-07-31T12:56:02;100728.88;;;33.69
67599;BMP280;62026;39.230;9.122;2023-07-31T12:58:28;100728.66;;;33.51
67599;BMP280;62026;39.230;9.122;2023-07-31T13:00:54;100733.31;;;33.47
67599;BMP280;62026;39.230;9.122;2023-07-31T13:03:20;100723.94;;;33.48
67599;BMP280;62026;39.230;9.122;2023-07-31T13:05:46;100726.53;;;33.34
67599;BMP280;62026;39.230;9.122;2023-07-31T13:08:12;100725.72;;;33.34
67599;BMP280;62026;39.230;9.122;2023-07-31T13:10:39;100731.19;;;33.00
67599;BMP280;62026;39.230;9.122;2023-07-31T13:13:05;100725.78;;;33.08
67599;BMP280;62026;39.230;9.122;2023-07-31T13:15:31;100730.44;;;33.07
67599;BMP280;62026;39.230;9.122;2023-07-31T13:17:57;100728.78;;;32.99
67599;BMP280;62026;39.230;9.122;2023-07-31T13:20:23;100711.59;;;32.72
67599;BMP280;62026;39.230;9.122;2023-07-31T13:22:49;100724.03;;;32.92
67599;BMP280;62026;39.230;9.122;2023-07-31T13:25:15;100718.44;;;32.85
67599;BMP280;62026;39.230;9.122;2023-07-31T13:27:41;100710.69;;;32.91
67599;BMP280;62026;39.230;9.122;2023-07-31T13:30:08;100720.66;;;32.76
67599;BMP280;62026;39.230;9.122;2023-07-31T13:32:34;100716.94;;;32.91
67599;BMP280;62026;39.230;9.122;2023-07-31T13:35:06;100713.22;;;32.77
67599;BMP280;62026;39.230;9.122;2023-07-31T13:37:32;100709.56;;;32.66
67599;BMP280;62026;39.230;9.122;2023-07-31T13:39:58;100722.84;;;32.64
67599;BMP280;62026;39.230;9.122;2023-07-31T13:42:24;100712.75;;;32.97
67599;BMP280;62026;39.230;9.122;2023-07-31T13:44:50;100718.53;;;33.22
67599;BMP280;62026;39.230;9.122;2023-07-31T13:47:16;100712.78;;;33.31
67599;BMP280;62026;39.230;9.122;2023-07-31T13:49:42;100719.00;;;33.28
67599;BMP280;62026;39.230;9.122;2023-07-31T13:52:09;100716.44;;;33.12
67599;BMP280;62026;39.230;9.122;2023-07-31T13:54:35;100714.88;;;33.11
67599;BMP280;62026;39.230;9.122;2023-07-31T13:57:01;100717.16;;;33.05
67599;BMP280;62026;39.230;9.122;2023-07-31T13:59:27;100721.13;;;33.08
67599;BMP280;62026;39.230;9.122;2023-07-31T14:01:53;100713.00;;;32.89
67599;BMP280;62026;39.230;9.122;2023-07-31T14:04:19;100715.66;;;33.08
67599;BMP280;62026;39.230;9.122;2023-07-31T14:06:45;100717.09;;;33.02
67599;BMP280;62026;39.230;9.122;2023-07-31T14:09:13;100711.06;;;33.19